createdAt,value
2022-10-18T00:00:08.253Z,16.10
2022-10-18T00:01:08.239Z,16.10
2022-10-18T00:02:08.277Z,16.06
2022-10-18T00:03:08.244Z,16.07
2022-10-18T00:04:08.212Z,16.03
2022-10-18T00:05:08.193Z,16.03
2022-10-18T00:06:08.213Z,16.04
2022-10-18T00:07:08.174Z,16.04
2022-10-18T00:08:08.173Z,16.04
2022-10-18T00:09:08.152Z,16.07
2022-10-18T00:10:08.175Z,16.07
2022-10-18T00:11:08.145Z,16.07
2022-10-18T00:12:08.124Z,16.06
2022-10-18T00:13:08.116Z,16.04
2022-10-18T00:14:08.132Z,16.03
2022-10-18T00:15:08.085Z,16.03
2022-10-18T00:16:08.086Z,16.03
2022-10-18T00:17:08.065Z,15.99
2022-10-18T00:18:08.056Z,15.95
2022-10-18T00:19:08.046Z,15.95
2022-10-18T00:20:08.037Z,15.93
2022-10-18T00:21:08.050Z,15.93
2022-10-18T00:22:08.018Z,15.92
2022-10-18T00:23:07.997Z,15.92
2022-10-18T00:24:08.008Z,15.91
2022-10-18T00:25:07.979Z,15.91
2022-10-18T00:26:07.997Z,15.91
2022-10-18T00:27:07.967Z,15.91
2022-10-18T00:28:07.964Z,15.91
2022-10-18T00:29:07.936Z,15.91
2022-10-18T00:30:07.928Z,15.88
2022-10-18T00:31:07.959Z,15.86
2022-10-18T00:32:07.929Z,15.88
2022-10-18T00:33:07.898Z,15.86
2022-10-18T00:34:07.903Z,15.85
2022-10-18T00:35:07.892Z,15.84
2022-10-18T00:36:07.860Z,15.81
2022-10-18T00:37:07.889Z,15.81
2022-10-18T00:38:07.860Z,15.81
2022-10-18T00:39:07.830Z,15.81
2022-10-18T00:40:07.821Z,15.80
2022-10-18T00:41:07.820Z,15.80
2022-10-18T00:42:07.810Z,15.80
2022-10-18T00:43:07.801Z,15.78
2022-10-18T00:44:07.803Z,15.80
2022-10-18T00:45:07.762Z,15.78
2022-10-18T00:46:07.771Z,15.78
2022-10-18T00:47:07.752Z,15.78
2022-10-18T00:48:07.732Z,15.78
2022-10-18T00:49:07.746Z,15.80
2022-10-18T00:50:07.731Z,15.78
2022-10-18T00:51:07.703Z,15.78
2022-10-18T00:52:07.723Z,15.80
2022-10-18T00:53:07.703Z,15.80
2022-10-18T00:54:07.674Z,15.81
2022-10-18T00:55:07.684Z,15.81
2022-10-18T00:56:07.653Z,15.84
2022-10-18T00:57:07.645Z,15.81
2022-10-18T00:58:07.635Z,15.85
2022-10-18T00:59:07.625Z,15.85
2022-10-18T01:00:07.700Z,15.86
2022-10-18T01:01:07.607Z,15.89
2022-10-18T01:02:07.644Z,15.92
2022-10-18T01:03:07.575Z,15.92
2022-10-18T01:04:07.589Z,15.92
2022-10-18T01:05:07.591Z,15.93
2022-10-18T01:06:07.555Z,15.93
2022-10-18T01:07:07.526Z,15.93
2022-10-18T01:08:28.524Z,15.93
2022-10-18T01:09:07.503Z,15.93
2022-10-18T01:10:07.493Z,15.93
2022-10-18T01:11:07.506Z,15.95
2022-10-18T01:12:07.498Z,15.95
2022-10-18T01:13:07.455Z,15.95
2022-10-18T01:14:07.456Z,15.93
2022-10-18T01:15:07.437Z,15.95
2022-10-18T01:16:07.446Z,15.95
2022-10-18T01:17:07.446Z,15.93
2022-10-18T01:18:07.438Z,15.95
2022-10-18T01:19:07.387Z,15.92
2022-10-18T01:20:07.394Z,15.93
2022-10-18T01:21:07.403Z,15.95
2022-10-18T01:22:07.378Z,15.93
2022-10-18T01:23:07.350Z,15.93
2022-10-18T01:24:07.358Z,15.95
2022-10-18T01:25:07.322Z,15.96
2022-10-18T01:26:07.342Z,15.95
2022-10-18T01:27:07.300Z,15.95
2022-10-18T01:28:07.298Z,15.96
2022-10-18T01:29:07.359Z,15.95
2022-10-18T01:30:07.319Z,15.95
2022-10-18T01:31:07.269Z,15.95
2022-10-18T01:32:07.252Z,15.96
2022-10-18T01:33:07.250Z,15.95
2022-10-18T01:34:07.239Z,15.96
2022-10-18T01:35:07.231Z,15.98
2022-10-18T01:36:07.249Z,15.96
2022-10-18T01:37:07.199Z,15.98
2022-10-18T01:38:07.190Z,15.98
2022-10-18T01:39:07.193Z,15.99
2022-10-18T01:40:07.171Z,15.98
2022-10-18T01:41:10.619Z,15.99
2022-10-18T01:42:08.172Z,15.99
2022-10-18T01:44:07.134Z,15.99
2022-10-18T01:45:07.123Z,15.99
2022-10-18T01:46:07.134Z,15.99
2022-10-18T01:47:07.113Z,16.01
2022-10-18T01:48:07.094Z,15.99
2022-10-18T01:49:07.065Z,15.99
2022-10-18T01:50:07.054Z,15.99
2022-10-18T01:51:07.044Z,16.01
2022-10-18T01:53:07.035Z,16.01
2022-10-18T01:54:07.021Z,15.99
2022-10-18T01:55:06.994Z,16.01
2022-10-18T01:56:07.015Z,16.01
2022-10-18T01:57:06.995Z,16.01
2022-10-18T01:58:06.986Z,16.04
2022-10-18T01:59:06.975Z,16.04
2022-10-18T02:00:06.966Z,16.04
2022-10-18T02:01:06.989Z,16.04
2022-10-18T02:02:06.929Z,16.01
2022-10-18T02:03:06.926Z,16.03
2022-10-18T02:04:06.944Z,16.04
2022-10-18T02:05:06.888Z,16.01
2022-10-18T02:06:06.898Z,16.04
2022-10-18T02:07:06.888Z,16.03
2022-10-18T02:08:19.271Z,16.04
2022-10-18T02:09:07.869Z,16.03
2022-10-18T02:10:06.871Z,16.03
2022-10-18T02:11:06.830Z,16.03
2022-10-18T02:12:06.829Z,16.04
2022-10-18T02:13:06.828Z,16.03
2022-10-18T02:14:06.819Z,16.03
2022-10-18T02:15:06.812Z,16.03
2022-10-18T02:16:06.789Z,16.04
2022-10-18T02:17:06.793Z,16.03
2022-10-18T02:18:06.780Z,16.04
2022-10-18T02:19:06.750Z,16.04
2022-10-18T02:20:06.758Z,16.06
2022-10-18T02:21:06.739Z,16.04
2022-10-18T02:22:06.720Z,16.04
2022-10-18T02:23:06.721Z,16.04
2022-10-18T02:24:06.720Z,16.04
2022-10-18T02:25:06.692Z,16.04
2022-10-18T02:26:06.678Z,16.03
2022-10-18T02:27:06.692Z,16.03
2022-10-18T02:28:06.655Z,16.04
2022-10-18T02:29:06.634Z,16.06
2022-10-18T02:30:06.633Z,16.06
2022-10-18T02:31:06.628Z,16.06
2022-10-18T02:32:06.624Z,16.06
2022-10-18T02:33:06.604Z,16.06
2022-10-18T02:34:06.618Z,16.06
2022-10-18T02:35:06.584Z,16.06
2022-10-18T02:36:06.585Z,16.06
2022-10-18T02:37:06.554Z,16.07
2022-10-18T02:38:06.563Z,16.07
2022-10-18T02:39:06.556Z,16.07
2022-10-18T02:40:06.595Z,16.06
2022-10-18T02:41:06.515Z,16.06
2022-10-18T02:42:06.527Z,16.04
2022-10-18T02:43:06.486Z,16.06
2022-10-18T02:44:07.946Z,16.04
2022-10-18T02:45:06.476Z,16.04
2022-10-18T02:46:06.486Z,16.04
2022-10-18T02:47:06.460Z,16.03
2022-10-18T02:48:06.439Z,16.04
2022-10-18T02:49:06.430Z,16.04
2022-10-18T02:50:06.438Z,16.04
2022-10-18T02:51:06.415Z,16.06
2022-10-18T02:52:06.408Z,16.06
2022-10-18T02:53:06.418Z,16.06
2022-10-18T02:54:06.380Z,16.06
2022-10-18T02:55:06.372Z,16.06
2022-10-18T02:56:06.361Z,16.04
2022-10-18T02:57:06.339Z,16.04
2022-10-18T02:58:06.339Z,16.04
2022-10-18T02:59:06.335Z,16.04
2022-10-18T03:00:06.320Z,16.04
2022-10-18T03:01:06.328Z,16.04
2022-10-18T03:02:06.290Z,16.06
2022-10-18T03:03:06.295Z,16.04
2022-10-18T03:04:06.280Z,16.04
2022-10-18T03:05:06.293Z,16.03
2022-10-18T03:06:06.261Z,16.04
2022-10-18T03:07:06.235Z,16.03
2022-10-18T03:08:06.233Z,16.03
2022-10-18T03:09:06.222Z,16.03
2022-10-18T03:10:06.209Z,16.03
2022-10-18T03:11:06.310Z,16.01
2022-10-18T03:12:06.193Z,16.03
2022-10-18T03:13:06.176Z,16.03
2022-10-18T03:14:06.154Z,16.03
2022-10-18T03:15:06.171Z,16.01
2022-10-18T03:16:06.154Z,16.03
2022-10-18T03:17:06.135Z,16.03
2022-10-18T03:18:06.124Z,16.03
2022-10-18T03:19:06.103Z,16.03
2022-10-18T03:20:06.094Z,16.01
2022-10-18T03:21:06.102Z,16.03
2022-10-18T03:22:06.091Z,16.01
2022-10-18T03:23:06.083Z,16.01
2022-10-18T03:24:06.047Z,16.01
2022-10-18T03:25:06.046Z,16.01
2022-10-18T03:26:06.036Z,16.03
2022-10-18T03:27:06.048Z,16.01
2022-10-18T03:28:06.009Z,15.99
2022-10-18T03:29:06.079Z,16.01
2022-10-18T03:30:06.007Z,16.01
2022-10-18T03:31:05.978Z,16.01
2022-10-18T03:32:05.977Z,15.99
2022-10-18T03:33:05.970Z,15.99
2022-10-18T03:34:05.954Z,15.98
2022-10-18T03:35:05.938Z,15.98
2022-10-18T03:36:05.926Z,15.95
2022-10-18T03:37:05.923Z,15.96
2022-10-18T03:38:05.928Z,15.96
2022-10-18T03:39:05.896Z,15.96
2022-10-18T03:40:05.889Z,15.96
2022-10-18T03:41:05.881Z,15.96
2022-10-18T03:42:05.853Z,15.95
2022-10-18T03:43:05.852Z,15.95
2022-10-18T03:44:05.841Z,15.93
2022-10-18T03:45:05.849Z,15.92
2022-10-18T03:46:05.825Z,15.91
2022-10-18T03:47:05.832Z,15.91
2022-10-18T03:48:05.788Z,15.89
2022-10-18T03:49:05.801Z,15.86
2022-10-18T03:50:05.769Z,15.86
2022-10-18T03:51:05.763Z,15.85
2022-10-18T03:52:05.762Z,15.84
2022-10-18T03:53:05.752Z,15.84
2022-10-18T03:54:05.761Z,15.80
2022-10-18T03:55:05.733Z,15.78
2022-10-18T03:56:05.731Z,15.77
2022-10-18T03:57:05.714Z,15.74
2022-10-18T03:58:05.693Z,15.76
2022-10-18T03:59:05.699Z,15.73
2022-10-18T04:00:05.664Z,15.74
2022-10-18T04:01:05.663Z,15.73
2022-10-18T04:02:05.746Z,15.73
2022-10-18T04:03:05.665Z,15.71
2022-10-18T04:04:05.621Z,15.68
2022-10-18T04:05:05.615Z,15.66
2022-10-18T04:06:05.594Z,15.66
2022-10-18T04:07:05.595Z,15.66
2022-10-18T04:08:05.585Z,15.64
2022-10-18T04:09:09.345Z,15.62
2022-10-18T04:10:05.573Z,15.60
2022-10-18T04:11:05.547Z,15.60
2022-10-18T04:12:05.556Z,15.58
2022-10-18T04:13:05.539Z,15.58
2022-10-18T04:14:05.526Z,15.58
2022-10-18T04:15:05.515Z,15.56
2022-10-18T04:16:05.518Z,15.58
2022-10-18T04:17:05.500Z,15.59
2022-10-18T04:18:05.498Z,15.59
2022-10-18T04:19:05.458Z,15.60
2022-10-18T04:20:05.452Z,15.60
2022-10-18T04:21:05.448Z,15.60
2022-10-18T04:22:05.430Z,15.62
2022-10-18T04:23:05.431Z,15.62
2022-10-18T04:24:05.408Z,15.60
2022-10-18T04:25:05.400Z,15.62
2022-10-18T04:26:05.403Z,15.60
2022-10-18T04:27:05.408Z,15.62
2022-10-18T04:28:05.360Z,15.62
2022-10-18T04:29:05.394Z,15.60
2022-10-18T04:30:05.331Z,15.62
2022-10-18T04:31:05.340Z,15.64
2022-10-18T04:32:05.330Z,15.66
2022-10-18T04:33:05.310Z,15.67
2022-10-18T04:34:05.291Z,15.67
2022-10-18T04:35:05.291Z,15.68
2022-10-18T04:36:05.302Z,15.68
2022-10-18T04:37:05.271Z,15.70
2022-10-18T04:38:05.272Z,15.70
2022-10-18T04:39:05.252Z,15.71
2022-10-18T04:40:05.254Z,15.71
2022-10-18T04:41:05.236Z,15.73
2022-10-18T04:42:05.212Z,15.73
2022-10-18T04:43:05.224Z,15.74
2022-10-18T04:44:05.194Z,15.76
2022-10-18T04:45:05.205Z,15.74
2022-10-18T04:46:05.172Z,15.74
2022-10-18T04:47:05.154Z,15.76
2022-10-18T04:48:05.145Z,15.77
2022-10-18T04:49:05.149Z,15.77
2022-10-18T04:50:05.127Z,15.77
2022-10-18T04:51:05.116Z,15.77
2022-10-18T04:52:05.136Z,15.78
2022-10-18T04:53:05.094Z,15.80
2022-10-18T04:54:05.417Z,15.81
2022-10-18T04:55:05.075Z,15.81
2022-10-18T04:56:05.076Z,15.81
2022-10-18T04:57:05.067Z,15.84
2022-10-18T04:58:05.057Z,15.85
2022-10-18T04:59:05.037Z,15.86
2022-10-18T05:00:05.017Z,15.86
2022-10-18T05:01:05.027Z,15.86
2022-10-18T05:02:05.046Z,15.86
2022-10-18T05:03:04.998Z,15.88
2022-10-18T05:04:04.989Z,15.88
2022-10-18T05:05:05.807Z,15.89
2022-10-18T05:06:04.958Z,15.88
2022-10-18T05:07:04.966Z,15.88
2022-10-18T05:08:04.950Z,15.86
2022-10-18T05:09:04.919Z,15.86
2022-10-18T05:10:04.940Z,15.88
2022-10-18T05:11:04.978Z,15.86
2022-10-18T05:12:04.889Z,15.86
2022-10-18T05:13:04.925Z,15.88
2022-10-18T05:14:04.880Z,15.86
2022-10-18T05:15:04.861Z,15.86
2022-10-18T05:16:04.840Z,15.86
2022-10-18T05:17:04.861Z,15.88
2022-10-18T05:18:04.839Z,15.86
2022-10-18T05:19:04.831Z,15.88
2022-10-18T05:20:04.892Z,15.89
2022-10-18T05:21:04.791Z,15.89
2022-10-18T05:22:04.802Z,15.89
2022-10-18T05:23:04.780Z,15.89
2022-10-18T05:24:04.792Z,15.89
2022-10-18T05:25:04.761Z,15.89
2022-10-18T05:26:04.752Z,15.88
2022-10-18T05:27:04.753Z,15.88
2022-10-18T05:28:10.691Z,15.86
2022-10-18T05:29:05.902Z,15.85
2022-10-18T05:30:05.782Z,15.84
2022-10-18T05:31:04.704Z,15.80
2022-10-18T05:32:04.682Z,15.78
2022-10-18T05:33:04.684Z,15.77
2022-10-18T05:34:04.654Z,15.76
2022-10-18T05:35:04.646Z,15.73
2022-10-18T05:36:04.677Z,15.73
2022-10-18T05:37:04.615Z,15.70
2022-10-18T05:38:04.613Z,15.68
2022-10-18T05:39:05.070Z,15.66
2022-10-18T05:40:04.664Z,15.66
2022-10-18T05:41:04.575Z,15.64
2022-10-18T05:42:04.606Z,15.62
2022-10-18T05:43:04.557Z,15.60
2022-10-18T05:44:04.556Z,15.60
2022-10-18T05:45:04.539Z,15.58
2022-10-18T05:46:04.528Z,15.55
2022-10-18T05:47:04.529Z,15.56
2022-10-18T05:48:04.499Z,15.55
2022-10-18T05:49:04.506Z,15.55
2022-10-18T05:50:04.477Z,15.53
2022-10-18T05:51:04.485Z,15.53
2022-10-18T05:52:04.468Z,15.51
2022-10-18T05:53:12.342Z,15.52
2022-10-18T05:54:05.481Z,15.49
2022-10-18T05:55:04.429Z,15.49
2022-10-18T05:56:04.430Z,15.46
2022-10-18T05:57:04.420Z,15.46
2022-10-18T05:58:04.389Z,15.43
2022-10-18T05:59:04.389Z,15.46
2022-10-18T06:00:04.398Z,15.43
2022-10-18T06:01:04.381Z,15.41
2022-10-18T06:02:04.374Z,15.44
2022-10-18T06:03:04.353Z,15.41
2022-10-18T06:04:04.342Z,15.41
2022-10-18T06:05:04.331Z,15.43
2022-10-18T06:06:04.340Z,15.43
2022-10-18T06:07:04.321Z,15.43
2022-10-18T06:08:06.596Z,15.41
2022-10-18T06:09:05.281Z,15.43
2022-10-18T06:10:04.271Z,15.41
2022-10-18T06:11:04.273Z,15.43
2022-10-18T06:12:04.243Z,15.43
2022-10-18T06:13:04.263Z,15.43
2022-10-18T06:14:04.234Z,15.44
2022-10-18T06:15:04.223Z,15.44
2022-10-18T06:16:04.213Z,15.46
2022-10-18T06:17:04.214Z,15.48
2022-10-18T06:18:04.181Z,15.51
2022-10-18T06:19:04.205Z,15.51
2022-10-18T06:20:04.184Z,15.53
2022-10-18T06:21:04.147Z,15.55
2022-10-18T06:22:04.145Z,15.58
2022-10-18T06:23:04.135Z,15.60
2022-10-18T06:24:04.203Z,15.62
2022-10-18T06:25:04.124Z,15.66
2022-10-18T06:26:04.416Z,15.70
2022-10-18T06:28:05.191Z,15.77
2022-10-18T06:29:04.144Z,15.78
2022-10-18T06:30:04.056Z,15.81
2022-10-18T06:31:04.057Z,15.88
2022-10-18T06:32:04.048Z,15.91
2022-10-18T06:33:04.032Z,15.95
2022-10-18T06:34:04.017Z,15.95
2022-10-18T06:35:04.018Z,16.01
2022-10-18T06:36:04.006Z,16.04
2022-10-18T06:37:03.988Z,16.06
2022-10-18T06:38:03.960Z,16.08
2022-10-18T06:39:03.957Z,16.11
2022-10-18T06:40:03.967Z,16.13
2022-10-18T06:41:03.956Z,16.14
2022-10-18T06:42:03.929Z,16.17
2022-10-18T06:43:19.488Z,16.18
2022-10-18T06:44:04.909Z,16.23
2022-10-18T06:45:03.892Z,16.25
2022-10-18T06:46:03.897Z,16.25
2022-10-18T06:47:03.897Z,16.29
2022-10-18T06:48:03.853Z,16.30
2022-10-18T06:49:03.869Z,16.32
2022-10-18T06:50:03.851Z,16.34
2022-10-18T06:51:03.821Z,16.36
2022-10-18T06:52:03.831Z,16.37
2022-10-18T06:53:03.803Z,16.40
2022-10-18T06:54:17.316Z,16.41
2022-10-18T06:55:08.991Z,16.42
2022-10-18T06:56:03.783Z,16.44
2022-10-18T06:57:03.793Z,16.45
2022-10-18T06:58:03.742Z,16.47
2022-10-18T06:59:03.755Z,16.48
2022-10-18T07:00:03.745Z,16.51
2022-10-18T07:01:03.725Z,16.51
2022-10-18T07:02:03.835Z,16.51
2022-10-18T07:03:03.700Z,16.52
2022-10-18T07:04:03.728Z,16.55
2022-10-18T07:05:03.686Z,16.57
2022-10-18T07:06:03.678Z,16.59
2022-10-18T07:07:03.655Z,16.60
2022-10-18T07:08:03.635Z,16.62
2022-10-18T07:09:03.695Z,16.62
2022-10-18T07:10:03.616Z,16.63
2022-10-18T07:11:03.626Z,16.65
2022-10-18T07:12:03.606Z,16.66
2022-10-18T07:13:27.321Z,16.66
2022-10-18T07:14:04.613Z,16.69
2022-10-18T07:15:08.975Z,16.67
2022-10-18T07:16:04.591Z,16.70
2022-10-18T07:17:03.547Z,16.70
2022-10-18T07:18:03.547Z,16.72
2022-10-18T07:19:03.520Z,16.75
2022-10-18T07:20:03.549Z,16.75
2022-10-18T07:21:03.528Z,16.78
2022-10-18T07:22:03.516Z,16.80
2022-10-18T07:23:03.500Z,16.80
2022-10-18T07:24:03.489Z,16.84
2022-10-18T07:25:03.470Z,16.84
2022-10-18T07:26:03.502Z,16.85
2022-10-18T07:27:03.480Z,16.85
2022-10-18T07:28:03.431Z,16.90
2022-10-18T07:29:03.465Z,16.91
2022-10-18T07:30:03.534Z,16.95
2022-10-18T07:31:05.972Z,16.96
2022-10-18T07:32:03.391Z,16.98
2022-10-18T07:33:03.370Z,17.00
2022-10-18T07:34:03.370Z,17.03
2022-10-18T07:35:03.444Z,17.06
2022-10-18T07:36:03.355Z,17.09
2022-10-18T07:37:03.329Z,17.12
2022-10-18T07:38:03.360Z,17.17
2022-10-18T07:39:03.341Z,17.20
2022-10-18T07:40:03.312Z,17.21
2022-10-18T07:41:03.283Z,17.24
2022-10-18T07:42:03.293Z,17.27
2022-10-18T07:43:04.705Z,17.28
2022-10-18T07:44:03.293Z,17.33
2022-10-18T07:45:03.254Z,17.38
2022-10-18T07:46:03.346Z,17.39
2022-10-18T07:47:03.221Z,17.42
2022-10-18T07:48:03.224Z,17.46
2022-10-18T07:49:03.235Z,17.51
2022-10-18T07:50:03.215Z,17.54
2022-10-18T07:51:03.184Z,17.57
2022-10-18T07:52:03.183Z,17.62
2022-10-18T07:53:03.165Z,17.66
2022-10-18T07:54:03.177Z,17.71
2022-10-18T07:55:03.147Z,17.74
2022-10-18T07:56:05.813Z,17.77
2022-10-18T07:57:04.131Z,17.81
2022-10-18T07:58:03.106Z,17.86
2022-10-18T07:59:03.127Z,17.89
2022-10-18T08:00:03.107Z,17.95
2022-10-18T08:01:03.097Z,17.99
2022-10-18T08:02:03.094Z,18.05
2022-10-18T08:03:03.067Z,18.11
2022-10-18T08:04:07.189Z,18.14
2022-10-18T08:05:04.030Z,18.20
2022-10-18T08:06:03.030Z,18.23
2022-10-18T08:07:03.008Z,18.28
2022-10-18T08:08:05.703Z,18.31
2022-10-18T08:09:04.020Z,18.36
2022-10-18T08:10:03.007Z,18.38
2022-10-18T08:11:02.980Z,18.41
2022-10-18T08:12:02.969Z,18.42
2022-10-18T08:13:02.948Z,18.46
2022-10-18T08:14:02.956Z,18.47
2022-10-18T08:15:02.958Z,18.51
2022-10-18T08:16:02.941Z,18.51
2022-10-18T08:17:02.921Z,18.56
2022-10-18T08:18:02.911Z,18.59
2022-10-18T08:19:02.891Z,18.62
2022-10-18T08:20:12.388Z,18.66
2022-10-18T08:21:03.869Z,18.71
2022-10-18T08:22:02.852Z,18.75
2022-10-18T08:23:02.851Z,18.78
2022-10-18T08:24:02.843Z,18.83
2022-10-18T08:25:02.893Z,18.86
2022-10-18T08:26:02.832Z,18.90
2022-10-18T08:27:02.794Z,18.94
2022-10-18T08:28:02.795Z,18.99
2022-10-18T08:29:20.927Z,19.05
2022-10-18T08:30:03.808Z,19.06
2022-10-18T08:31:02.746Z,19.12
2022-10-18T08:32:02.765Z,19.17
2022-10-18T08:33:02.733Z,19.21
2022-10-18T08:34:02.796Z,19.25
2022-10-18T08:35:04.496Z,19.28
2022-10-18T08:36:02.726Z,19.32
2022-10-18T08:37:02.686Z,19.38
2022-10-18T08:38:02.719Z,19.42
2022-10-18T08:39:02.670Z,19.46
2022-10-18T08:40:02.657Z,19.49
2022-10-18T08:41:02.654Z,19.52
2022-10-18T08:42:02.647Z,19.57
2022-10-18T08:43:02.624Z,19.57
2022-10-18T08:44:04.764Z,19.62
2022-10-18T08:45:12.561Z,19.67
2022-10-18T08:46:03.599Z,19.71
2022-10-18T08:47:02.590Z,19.78
2022-10-18T08:48:02.580Z,19.82
2022-10-18T08:49:02.586Z,19.87
2022-10-18T08:50:02.561Z,19.97
2022-10-18T08:51:02.551Z,20.02
2022-10-18T08:52:02.550Z,20.08
2022-10-18T08:53:02.530Z,20.12
2022-10-18T08:54:02.522Z,20.17
2022-10-18T08:55:02.511Z,20.16
2022-10-18T08:56:02.501Z,20.19
2022-10-18T08:57:02.472Z,20.22
2022-10-18T08:58:02.503Z,20.23
2022-10-18T08:59:02.483Z,20.26
2022-10-18T09:00:02.452Z,20.27
2022-10-18T09:01:02.432Z,20.31
2022-10-18T09:02:02.477Z,20.31
2022-10-18T09:03:02.445Z,20.34
2022-10-18T09:04:02.444Z,20.37
2022-10-18T09:05:02.413Z,20.40
2022-10-18T09:06:02.404Z,20.41
2022-10-18T09:07:02.364Z,20.41
2022-10-18T09:08:02.363Z,20.42
2022-10-18T09:09:02.363Z,20.50
2022-10-18T09:10:02.344Z,20.57
2022-10-18T09:11:02.340Z,20.60
2022-10-18T09:12:02.428Z,20.64
2022-10-18T09:13:02.317Z,20.69
2022-10-18T09:14:02.305Z,20.72
2022-10-18T09:15:02.288Z,20.75
2022-10-18T09:16:02.285Z,20.82
2022-10-18T09:17:02.297Z,20.85
2022-10-18T09:18:02.288Z,20.87
2022-10-18T09:19:02.249Z,20.90
2022-10-18T09:20:02.319Z,20.90
2022-10-18T09:21:02.240Z,20.88
2022-10-18T09:22:04.959Z,20.82
2022-10-18T09:23:03.221Z,20.76
2022-10-18T09:24:02.207Z,20.78
2022-10-18T09:25:02.189Z,20.81
2022-10-18T09:26:02.169Z,20.87
2022-10-18T09:27:02.160Z,20.90
2022-10-18T09:28:02.151Z,20.90
2022-10-18T09:29:02.351Z,20.93
2022-10-18T09:30:02.141Z,20.97
2022-10-18T09:31:02.110Z,20.98
2022-10-18T09:32:02.121Z,21.00
2022-10-18T09:33:02.091Z,21.03
2022-10-18T09:34:02.130Z,21.08
2022-10-18T09:35:02.082Z,21.13
2022-10-18T09:36:02.074Z,21.13
2022-10-18T09:37:02.064Z,21.15
2022-10-18T09:38:02.042Z,21.15
2022-10-18T09:39:02.043Z,21.09
2022-10-18T09:40:02.036Z,21.06
2022-10-18T09:41:02.034Z,21.00
2022-10-18T09:42:02.237Z,20.93
2022-10-18T09:43:01.996Z,20.88
2022-10-18T09:44:01.985Z,20.79
2022-10-18T09:45:01.990Z,20.71
2022-10-18T09:46:01.969Z,20.63
2022-10-18T09:47:01.959Z,20.60
2022-10-18T09:48:01.948Z,20.61
2022-10-18T09:49:01.917Z,20.66
2022-10-18T09:50:01.954Z,20.73
2022-10-18T09:51:01.913Z,20.79
2022-10-18T09:52:01.897Z,20.87
2022-10-18T09:53:01.897Z,20.90
2022-10-18T09:54:01.929Z,20.87
2022-10-18T09:55:01.868Z,20.83
2022-10-18T09:56:01.848Z,20.79
2022-10-18T09:57:01.851Z,20.75
2022-10-18T09:58:01.869Z,20.72
2022-10-18T09:59:01.830Z,20.68
2022-10-18T10:00:01.840Z,20.68
2022-10-18T10:01:01.810Z,20.66
2022-10-18T10:02:01.869Z,20.63
2022-10-18T10:03:01.779Z,20.63
2022-10-18T10:04:01.768Z,20.66
2022-10-18T10:05:01.803Z,20.68
2022-10-18T10:06:01.745Z,20.72
2022-10-18T10:07:01.739Z,20.76
2022-10-18T10:08:01.742Z,20.78
2022-10-18T10:09:01.702Z,20.82
2022-10-18T10:10:01.730Z,20.83
2022-10-18T10:11:01.702Z,20.85
2022-10-18T10:12:01.693Z,20.83
2022-10-18T10:13:01.668Z,20.83
2022-10-18T10:14:01.683Z,20.83
2022-10-18T10:15:01.654Z,20.85
2022-10-18T10:16:01.651Z,20.83
2022-10-18T10:17:01.654Z,20.83
2022-10-18T10:18:01.613Z,20.87
2022-10-18T10:19:01.623Z,20.87
2022-10-18T10:20:01.606Z,20.88
2022-10-18T10:21:01.586Z,20.90
2022-10-18T10:22:01.575Z,20.91
2022-10-18T10:23:01.586Z,20.94
2022-10-18T10:24:01.560Z,20.94
2022-10-18T10:25:01.539Z,20.91
2022-10-18T10:26:01.541Z,20.94
2022-10-18T10:27:01.514Z,20.96
2022-10-18T10:28:01.533Z,20.96
2022-10-18T10:29:01.559Z,20.97
2022-10-18T10:30:04.345Z,20.97
2022-10-18T10:31:02.487Z,21.00
2022-10-18T10:32:01.481Z,21.01
2022-10-18T10:33:01.448Z,21.06
2022-10-18T10:34:01.479Z,21.09
2022-10-18T10:35:01.428Z,21.11
2022-10-18T10:36:01.430Z,21.13
2022-10-18T10:37:01.423Z,21.15
2022-10-18T10:38:01.411Z,21.15
2022-10-18T10:39:01.403Z,21.21
2022-10-18T10:40:19.853Z,21.21
2022-10-18T10:41:02.413Z,21.24
2022-10-18T10:42:01.362Z,21.26
2022-10-18T10:43:12.998Z,21.28
2022-10-18T10:44:02.348Z,21.34
2022-10-18T10:45:01.335Z,21.40
2022-10-18T10:46:01.334Z,21.46
2022-10-18T10:47:01.323Z,21.51
2022-10-18T10:48:01.293Z,21.53
2022-10-18T10:49:27.901Z,21.59
2022-10-18T10:50:02.283Z,21.63
2022-10-18T10:51:01.262Z,21.67
2022-10-18T10:52:08.531Z,21.74
2022-10-18T10:53:02.245Z,21.81
2022-10-18T10:54:01.236Z,21.89
2022-10-18T10:55:34.870Z,21.96
2022-10-18T10:56:02.225Z,22.01
2022-10-18T10:57:01.288Z,22.08
2022-10-18T10:58:01.197Z,22.15
2022-10-18T10:59:01.229Z,22.23
2022-10-18T11:00:01.205Z,22.27
2022-10-18T11:01:01.147Z,22.35
2022-10-18T11:02:01.159Z,22.42
2022-10-18T11:03:11.025Z,22.48
2022-10-18T11:04:02.212Z,22.56
2022-10-18T11:05:01.120Z,22.61
2022-10-18T11:06:01.240Z,22.61
2022-10-18T11:07:01.106Z,22.66
2022-10-18T11:08:01.101Z,22.75
2022-10-18T11:09:01.090Z,22.81
2022-10-18T11:10:01.090Z,22.91
2022-10-18T11:11:01.051Z,22.99
2022-10-18T11:12:01.038Z,23.16
2022-10-18T11:13:01.041Z,23.41
2022-10-18T11:14:21.170Z,23.62
2022-10-18T11:15:02.001Z,23.69
2022-10-18T11:16:01.021Z,23.86
2022-10-18T11:17:04.226Z,24.04
2022-10-18T11:18:01.974Z,24.18
2022-10-18T11:19:00.982Z,24.29
2022-10-18T11:20:00.954Z,24.30
2022-10-18T11:21:00.964Z,24.29
2022-10-18T11:22:00.944Z,24.30
2022-10-18T11:23:00.951Z,24.34
2022-10-18T11:24:00.925Z,24.39
2022-10-18T11:25:00.904Z,24.37
2022-10-18T11:26:00.904Z,24.48
2022-10-18T11:27:00.875Z,24.61
2022-10-18T11:28:00.895Z,24.71
2022-10-18T11:29:00.920Z,24.79
2022-10-18T11:30:00.865Z,24.93
2022-10-18T11:31:00.846Z,25.09
2022-10-18T11:32:00.844Z,25.14
2022-10-18T11:33:00.807Z,25.24
2022-10-18T11:34:09.518Z,25.31
2022-10-18T11:35:01.798Z,25.30
2022-10-18T11:36:03.814Z,25.22
2022-10-18T11:37:22.997Z,25.14
2022-10-18T11:38:01.769Z,25.04
2022-10-18T11:39:00.748Z,24.94
2022-10-18T11:40:00.739Z,24.86
2022-10-18T11:41:00.770Z,24.82
2022-10-18T11:42:00.736Z,24.79
2022-10-18T11:43:00.711Z,24.80
2022-10-18T11:44:03.263Z,24.77
2022-10-18T11:45:00.693Z,24.74
2022-10-18T11:46:00.671Z,24.87
2022-10-18T11:47:00.702Z,25.01
2022-10-18T11:48:00.672Z,24.90
2022-10-18T11:49:00.650Z,24.83
2022-10-18T11:50:00.652Z,24.79
2022-10-18T11:51:00.633Z,24.67
2022-10-18T11:52:08.397Z,24.45
2022-10-18T11:53:01.614Z,24.33
2022-10-18T11:54:00.635Z,24.19
2022-10-18T11:55:00.584Z,24.11
2022-10-18T11:56:00.575Z,24.00
2022-10-18T11:57:00.578Z,23.93
2022-10-18T11:58:00.546Z,23.89
2022-10-18T11:59:00.546Z,23.84
2022-10-18T12:00:00.546Z,23.78
2022-10-18T12:01:00.567Z,23.69
2022-10-18T12:02:00.542Z,23.60
2022-10-18T12:03:00.542Z,23.50
2022-10-18T12:04:00.497Z,23.45
2022-10-18T12:05:30.311Z,23.41
2022-10-18T12:06:01.497Z,23.41
2022-10-18T12:07:00.493Z,23.37
2022-10-18T12:08:00.450Z,23.38
2022-10-18T12:09:00.440Z,23.42
2022-10-18T12:10:00.440Z,23.44
2022-10-18T12:11:05.248Z,23.47
2022-10-18T12:12:01.420Z,23.49
2022-10-18T12:13:00.391Z,23.52
2022-10-18T12:14:00.392Z,24.02
2022-10-18T12:15:00.369Z,26.00
2022-10-18T12:16:00.381Z,29.12
2022-10-18T12:17:27.858Z,31.42
2022-10-18T12:18:01.380Z,33.15
2022-10-18T12:19:00.343Z,34.53
2022-10-18T12:20:00.319Z,35.92
2022-10-18T12:21:00.323Z,35.77
2022-10-18T12:22:00.310Z,35.64
2022-10-18T12:23:00.288Z,34.58
2022-10-18T12:24:00.286Z,33.75
2022-10-18T12:25:00.270Z,32.66
2022-10-18T12:26:00.267Z,31.75
2022-10-18T12:27:00.248Z,31.18
2022-10-18T12:29:00.264Z,30.18
2022-10-18T12:30:00.229Z,29.78
2022-10-18T12:31:00.238Z,30.30
2022-10-18T12:32:00.189Z,30.11
2022-10-18T12:33:03.672Z,30.42
2022-10-18T12:34:01.191Z,32.99
2022-10-18T12:35:00.170Z,34.73
2022-10-18T12:36:00.160Z,35.99
2022-10-18T12:37:00.182Z,36.99
2022-10-18T12:38:00.189Z,37.78
2022-10-18T12:39:00.130Z,37.91
2022-10-18T12:40:18.485Z,38.36
2022-10-18T12:41:01.093Z,39.14
2022-10-18T12:42:00.140Z,39.69
2022-10-18T12:43:00.096Z,39.78
2022-10-18T12:44:00.103Z,40.36
2022-10-18T12:45:00.056Z,40.83
2022-10-18T12:46:00.065Z,41.21
2022-10-18T12:47:00.040Z,41.58
2022-10-18T12:48:00.125Z,41.69
2022-10-18T12:49:00.036Z,41.20
2022-10-18T12:50:00.018Z,41.35
2022-10-18T12:51:00.007Z,41.07
2022-10-18T12:51:59.996Z,41.19
2022-10-18T12:52:59.978Z,41.58
2022-10-18T12:53:59.988Z,41.77
2022-10-18T12:54:59.969Z,41.54
2022-10-18T12:55:59.959Z,41.76